sensor_id;sensor_type;location;lat;lon;timestamp;temperature;humidity
5118;DHT22;2578;51.622;7.046;2023-02-15T00:00:20;0.10;99.90
5118;DHT22;2578;51.622;7.046;2023-02-15T00:02:45;0.20;99.90
5118;DHT22;2578;51.622;7.046;2023-02-15T00:05:11;0.20;99.90
5118;DHT22;2578;51.622;7.046;2023-02-15T00:07:37;0.10;99.90
5118;DHT22;2578;51.622;7.046;2023-02-15T00:10:03;0.10;99.90
5118;DHT22;2578;51.622;7.046;2023-02-15T00:12:29;0.10;99.90
5118;DHT22;2578;51.622;7.046;2023-02-15T00:14:55;0.00;99.90
5118;DHT22;2578;51.622;7.046;2023-02-15T00:17:21;0.00;99.90
5118;DHT22;2578;51.622;7.046;2023-02-15T00:19:46;-0.10;99.90
5118;DHT22;2578;51.622;7.046;2023-02-15T00:22:12;-0.20;99.90
5118;DHT22;2578;51.622;7.046;2023-02-15T00:24:38;-0.20;99.90
5118;DHT22;2578;51.622;7.046;2023-02-15T00:27:04;-0.20;99.90
5118;DHT22;2578;51.622;7.046;2023-02-15T00:29:29;-0.40;99.90
5118;DHT22;2578;51.622;7.046;2023-02-15T00:31:55;-0.40;99.90
5118;DHT22;2578;51.622;7.046;2023-02-15T00:34:23;-0.40;99.90
5118;DHT22;2578;51.622;7.046;2023-02-15T00:36:50;-0.40;99.90
5118;DHT22;2578;51.622;7.046;2023-02-15T00:39:16;-0.40;99.90
5118;DHT22;2578;51.622;7.046;2023-02-15T00:41:42;-0.40;99.90
5118;DHT22;2578;51.622;7.046;2023-02-15T00:44:09;-0.40;99.90
5118;DHT22;2578;51.622;7.046;2023-02-15T00:46:35;-0.30;99.90
5118;DHT22;2578;51.622;7.046;2023-02-15T00:49:01;-0.20;99.90
5118;DHT22;2578;51.622;7.046;2023-02-15T00:51:27;-0.20;99.90
5118;DHT22;2578;51.622;7.046;2023-02-15T00:53:53;-0.20;99.90
5118;DHT22;2578;51.622;7.046;2023-02-15T00:56:19;-0.30;99.90
5118;DHT22;2578;51.622;7.046;2023-02-15T00:58:44;-0.50;99.90
5118;DHT22;2578;51.622;7.046;2023-02-15T01:01:13;-0.50;99.90
5118;DHT22;2578;51.622;7.046;2023-02-15T01:03:40;-0.50;99.90
5118;DHT22;2578;51.622;7.046;2023-02-15T01:06:07;0.90;99.90
5118;DHT22;2578;51.622;7.046;2023-02-15T01:08:33;-0.70;99.90
5118;DHT22;2578;51.622;7.046;2023-02-15T01:11:04;-0.80;99.90
5118;DHT22;2578;51.622;7.046;2023-02-15T01:13:30;-0.90;99.90
5118;DHT22;2578;51.622;7.046;2023-02-15T01:15:56;-1.00;99.90
5118;DHT22;2578;51.622;7.046;2023-02-15T01:18:22;-0.10;99.90
5118;DHT22;2578;51.622;7.046;2023-02-15T01:20:48;-0.70;99.90
5118;DHT22;2578;51.622;7.046;2023-02-15T01:23:14;-0.70;99.90
5118;DHT22;2578;51.622;7.046;2023-02-15T01:25:40;-0.70;99.90
5118;DHT22;2578;51.622;7.046;2023-02-15T01:28:05;-0.70;99.90
5118;DHT22;2578;51.622;7.046;2023-02-15T01:30:31;0.50;99.90
5118;DHT22;2578;51.622;7.046;2023-02-15T01:32:57;-0.90;99.90
5118;DHT22;2578;51.622;7.046;2023-02-15T01:35:23;-1.00;99.90
5118;DHT22;2578;51.622;7.046;2023-02-15T01:37:49;-1.10;99.90
5118;DHT22;2578;51.622;7.046;2023-02-15T01:40:16;-1.10;99.90
5118;DHT22;2578;51.622;7.046;2023-02-15T01:42:42;-1.00;99.90
5118;DHT22;2578;51.622;7.046;2023-02-15T01:45:24;-1.00;99.90
5118;DHT22;2578;51.622;7.046;2023-02-15T01:50:29;-0.80;99.90
5118;DHT22;2578;51.622;7.046;2023-02-15T01:53:09;-0.90;99.90
5118;DHT22;2578;51.622;7.046;2023-02-15T01:55:45;-1.10;99.90
5118;DHT22;2578;51.622;7.046;2023-02-15T01:58:13;-1.10;99.90
5118;DHT22;2578;51.622;7.046;2023-02-15T02:00:40;-1.10;99.90
5118;DHT22;2578;51.622;7.046;2023-02-15T02:03:06;-1.10;99.90
5118;DHT22;2578;51.622;7.046;2023-02-15T02:05:32;-1.10;99.90
5118;DHT22;2578;51.622;7.046;2023-02-15T02:08:00;-1.10;99.90
5118;DHT22;2578;51.622;7.046;2023-02-15T02:10:27;-1.00;99.90
5118;DHT22;2578;51.622;7.046;2023-02-15T02:12:56;-0.90;99.90
5118;DHT22;2578;51.622;7.046;2023-02-15T02:16:00;-0.90;99.90
5118;DHT22;2578;51.622;7.046;2023-02-15T02:27:24;-1.10;99.90
5118;DHT22;2578;51.622;7.046;2023-02-15T02:30:13;-1.20;99.90
5118;DHT22;2578;51.622;7.046;2023-02-15T02:33:14;-1.20;99.90
5118;DHT22;2578;51.622;7.046;2023-02-15T02:38:35;-1.10;99.90
5118;DHT22;2578;51.622;7.046;2023-02-15T02:41:24;-1.20;99.90
5118;DHT22;2578;51.622;7.046;2023-02-15T02:44:25;-1.30;99.90
5118;DHT22;2578;51.622;7.046;2023-02-15T02:47:00;-1.30;99.90
5118;DHT22;2578;51.622;7.046;2023-02-15T02:52:03;-1.20;99.90
5118;DHT22;2578;51.622;7.046;2023-02-15T02:54:29;-1.20;99.90
5118;DHT22;2578;51.622;7.046;2023-02-15T02:56:58;-1.20;99.90
5118;DHT22;2578;51.622;7.046;2023-02-15T02:59:33;-1.30;99.90
5118;DHT22;2578;51.622;7.046;2023-02-15T03:02:09;-1.40;99.90
5118;DHT22;2578;51.622;7.046;2023-02-15T03:04:40;-1.50;99.90
5118;DHT22;2578;51.622;7.046;2023-02-15T03:07:27;-1.50;99.90
5118;DHT22;2578;51.622;7.046;2023-02-15T03:09:55;-1.40;99.90
5118;DHT22;2578;51.622;7.046;2023-02-15T03:12:34;-1.40;99.90
5118;DHT22;2578;51.622;7.046;2023-02-15T03:15:01;-1.10;99.90
5118;DHT22;2578;51.622;7.046;2023-02-15T03:17:31;-1.10;99.90
5118;DHT22;2578;51.622;7.046;2023-02-15T03:20:07;-1.20;99.90
5118;DHT22;2578;51.622;7.046;2023-02-15T03:22:40;-1.20;99.90
5118;DHT22;2578;51.622;7.046;2023-02-15T03:25:17;-1.20;99.90
5118;DHT22;2578;51.622;7.046;2023-02-15T03:27:49;-1.30;99.90
5118;DHT22;2578;51.622;7.046;2023-02-15T03:30:19;-1.40;99.90
5118;DHT22;2578;51.622;7.046;2023-02-15T03:32:47;-1.40;99.90
5118;DHT22;2578;51.622;7.046;2023-02-15T03:35:13;-1.50;99.90
5118;DHT22;2578;51.622;7.046;2023-02-15T03:37:43;-1.50;99.90
5118;DHT22;2578;51.622;7.046;2023-02-15T03:40:23;-1.60;99.90
5118;DHT22;2578;51.622;7.046;2023-02-15T03:43:32;-1.60;99.90
5118;DHT22;2578;51.622;7.046;2023-02-15T03:46:28;-1.70;99.90
5118;DHT22;2578;51.622;7.046;2023-02-15T03:49:07;-1.70;99.90
5118;DHT22;2578;51.622;7.046;2023-02-15T03:51:37;-1.70;99.90
5118;DHT22;2578;51.622;7.046;2023-02-15T03:54:13;-1.70;99.90
5118;DHT22;2578;51.622;7.046;2023-02-15T03:57:01;-1.70;99.90
5118;DHT22;2578;51.622;7.046;2023-02-15T03:59:45;-1.60;99.90
5118;DHT22;2578;51.622;7.046;2023-02-15T04:02:38;-1.50;99.90
5118;DHT22;2578;51.622;7.046;2023-02-15T04:05:05;-1.30;99.90
5118;DHT22;2578;51.622;7.046;2023-02-15T04:07:31;-1.30;99.90
5118;DHT22;2578;51.622;7.046;2023-02-15T04:09:56;-1.30;99.90
5118;DHT22;2578;51.622;7.046;2023-02-15T04:12:41;-1.30;99.90
5118;DHT22;2578;51.622;7.046;2023-02-15T04:15:08;-1.40;99.90
5118;DHT22;2578;51.622;7.046;2023-02-15T04:17:55;-1.40;99.90
5118;DHT22;2578;51.622;7.046;2023-02-15T04:20:21;-1.50;99.90
5118;DHT22;2578;51.622;7.046;2023-02-15T04:23:08;-1.50;99.90
5118;DHT22;2578;51.622;7.046;2023-02-15T04:25:52;-1.50;99.90
5118;DHT22;2578;51.622;7.046;2023-02-15T04:28:18;-1.40;99.90
5118;DHT22;2578;51.622;7.046;2023-02-15T04:30:43;-1.40;99.90
5118;DHT22;2578;51.622;7.046;2023-02-15T04:33:09;-1.50;99.90
5118;DHT22;2578;51.622;7.046;2023-02-15T04:35:34;-1.60;99.90
5118;DHT22;2578;51.622;7.046;2023-02-15T04:38:00;-1.60;99.90
5118;DHT22;2578;51.622;7.046;2023-02-15T04:40:26;-1.60;99.90
5118;DHT22;2578;51.622;7.046;2023-02-15T04:42:51;-1.60;99.90
5118;DHT22;2578;51.622;7.046;2023-02-15T04:45:17;-1.60;99.90
5118;DHT22;2578;51.622;7.046;2023-02-15T04:47:43;-1.70;99.90
5118;DHT22;2578;51.622;7.046;2023-02-15T04:50:09;-1.80;99.90
5118;DHT22;2578;51.622;7.046;2023-02-15T04:52:35;-1.80;99.90
5118;DHT22;2578;51.622;7.046;2023-02-15T04:55:01;-1.80;99.90
5118;DHT22;2578;51.622;7.046;2023-02-15T04:57:27;-1.80;99.90
5118;DHT22;2578;51.622;7.046;2023-02-15T04:59:52;-1.90;99.90
5118;DHT22;2578;51.622;7.046;2023-02-15T05:02:18;-1.90;99.90
5118;DHT22;2578;51.622;7.046;2023-02-15T05:04:44;-1.80;99.90
5118;DHT22;2578;51.622;7.046;2023-02-15T05:07:09;-1.70;99.90
5118;DHT22;2578;51.622;7.046;2023-02-15T05:09:35;-1.60;99.90
5118;DHT22;2578;51.622;7.046;2023-02-15T05:12:01;-1.70;99.90
5118;DHT22;2578;51.622;7.046;2023-02-15T05:14:26;-1.70;99.90
5118;DHT22;2578;51.622;7.046;2023-02-15T05:16:52;-1.70;99.90
5118;DHT22;2578;51.622;7.046;2023-02-15T05:19:19;-1.70;99.90
5118;DHT22;2578;51.622;7.046;2023-02-15T05:21:45;-1.70;99.90
5118;DHT22;2578;51.622;7.046;2023-02-15T05:24:10;-1.80;99.90
5118;DHT22;2578;51.622;7.046;2023-02-15T05:26:54;-1.80;99.90
5118;DHT22;2578;51.622;7.046;2023-02-15T05:29:39;-1.70;99.90
5118;DHT22;2578;51.622;7.046;2023-02-15T05:32:04;-1.00;99.90
5118;DHT22;2578;51.622;7.046;2023-02-15T05:34:30;-1.80;99.90
5118;DHT22;2578;51.622;7.046;2023-02-15T05:36:56;-1.80;99.90
5118;DHT22;2578;51.622;7.046;2023-02-15T05:39:21;-2.10;99.90
5118;DHT22;2578;51.622;7.046;2023-02-15T05:41:47;-2.10;99.90
5118;DHT22;2578;51.622;7.046;2023-02-15T05:44:12;-2.00;99.90
5118;DHT22;2578;51.622;7.046;2023-02-15T05:46:38;-2.00;99.90
5118;DHT22;2578;51.622;7.046;2023-02-15T05:49:03;-2.00;99.90
5118;DHT22;2578;51.622;7.046;2023-02-15T05:51:29;-1.90;99.90
5118;DHT22;2578;51.622;7.046;2023-02-15T05:53:55;-1.90;99.90
5118;DHT22;2578;51.622;7.046;2023-02-15T05:56:20;-1.90;99.90
5118;DHT22;2578;51.622;7.046;2023-02-15T05:58:46;-1.80;99.90
5118;DHT22;2578;51.622;7.046;2023-02-15T06:01:14;-1.80;99.90
5118;DHT22;2578;51.622;7.046;2023-02-15T06:03:40;-1.70;99.90
5118;DHT22;2578;51.622;7.046;2023-02-15T06:06:06;-1.70;99.90
5118;DHT22;2578;51.622;7.046;2023-02-15T06:08:33;-1.70;99.90
5118;DHT22;2578;51.622;7.046;2023-02-15T06:10:59;-1.10;99.90
5118;DHT22;2578;51.622;7.046;2023-02-15T06:13:25;-1.60;99.90
5118;DHT22;2578;51.622;7.046;2023-02-15T06:15:51;-1.70;99.90
5118;DHT22;2578;51.622;7.046;2023-02-15T06:18:17;-1.80;99.90
5118;DHT22;2578;51.622;7.046;2023-02-15T06:20:44;-2.00;99.90
5118;DHT22;2578;51.622;7.046;2023-02-15T06:23:10;-2.00;99.90
5118;DHT22;2578;51.622;7.046;2023-02-15T06:25:35;-2.10;99.90
5118;DHT22;2578;51.622;7.046;2023-02-15T06:28:01;-2.20;99.90
5118;DHT22;2578;51.622;7.046;2023-02-15T06:30:27;-2.20;99.90
5118;DHT22;2578;51.622;7.046;2023-02-15T06:32:52;-2.10;99.90
5118;DHT22;2578;51.622;7.046;2023-02-15T06:35:18;-2.10;99.90
5118;DHT22;2578;51.622;7.046;2023-02-15T06:37:45;-2.10;99.90
5118;DHT22;2578;51.622;7.046;2023-02-15T06:40:12;-2.00;99.90
5118;DHT22;2578;51.622;7.046;2023-02-15T06:42:37;-2.00;99.90
5118;DHT22;2578;51.622;7.046;2023-02-15T06:45:04;-2.00;99.90
5118;DHT22;2578;51.622;7.046;2023-02-15T06:47:30;-2.00;99.90
5118;DHT22;2578;51.622;7.046;2023-02-15T06:49:55;-2.00;99.90
5118;DHT22;2578;51.622;7.046;2023-02-15T06:52:21;-1.90;99.90
5118;DHT22;2578;51.622;7.046;2023-02-15T06:54:46;-1.70;99.90
5118;DHT22;2578;51.622;7.046;2023-02-15T06:57:12;-1.80;99.90
5118;DHT22;2578;51.622;7.046;2023-02-15T06:59:38;-1.80;99.90
5118;DHT22;2578;51.622;7.046;2023-02-15T07:02:03;-1.90;99.90
5118;DHT22;2578;51.622;7.046;2023-02-15T07:04:29;-1.90;99.90
5118;DHT22;2578;51.622;7.046;2023-02-15T07:06:55;-1.80;99.90
5118;DHT22;2578;51.622;7.046;2023-02-15T07:09:21;-1.80;99.90
5118;DHT22;2578;51.622;7.046;2023-02-15T07:11:47;-1.80;99.90
5118;DHT22;2578;51.622;7.046;2023-02-15T07:14:31;-1.70;99.90
5118;DHT22;2578;51.622;7.046;2023-02-15T07:16:57;-1.50;99.90
5118;DHT22;2578;51.622;7.046;2023-02-15T07:19:23;-1.20;99.90
5118;DHT22;2578;51.622;7.046;2023-02-15T07:21:48;-1.10;99.90
5118;DHT22;2578;51.622;7.046;2023-02-15T07:24:14;-0.90;99.90
5118;DHT22;2578;51.622;7.046;2023-02-15T07:26:40;-0.70;99.90
5118;DHT22;2578;51.622;7.046;2023-02-15T07:29:05;0.00;99.90
5118;DHT22;2578;51.622;7.046;2023-02-15T07:31:31;0.10;99.90
5118;DHT22;2578;51.622;7.046;2023-02-15T07:33:57;0.40;99.90
5118;DHT22;2578;51.622;7.046;2023-02-15T07:36:22;0.80;99.90
5118;DHT22;2578;51.622;7.046;2023-02-15T07:38:48;1.60;99.90
5118;DHT22;2578;51.622;7.046;2023-02-15T07:41:14;1.60;99.90
5118;DHT22;2578;51.622;7.046;2023-02-15T07:43:42;1.80;99.90
5118;DHT22;2578;51.622;7.046;2023-02-15T07:46:11;2.00;99.90
5118;DHT22;2578;51.622;7.046;2023-02-15T07:48:38;2.20;99.90
5118;DHT22;2578;51.622;7.046;2023-02-15T07:51:06;2.30;99.90
5118;DHT22;2578;51.622;7.046;2023-02-15T07:53:32;2.60;99.90
5118;DHT22;2578;51.622;7.046;2023-02-15T07:56:03;3.10;99.90
5118;DHT22;2578;51.622;7.046;2023-02-15T07:58:29;3.60;99.90
5118;DHT22;2578;51.622;7.046;2023-02-15T08:01:14;4.20;99.90
5118;DHT22;2578;51.622;7.046;2023-02-15T08:03:40;4.60;99.90
5118;DHT22;2578;51.622;7.046;2023-02-15T08:06:06;4.80;99.90
5118;DHT22;2578;51.622;7.046;2023-02-15T08:08:34;5.40;99.90
5118;DHT22;2578;51.622;7.046;2023-02-15T08:11:03;5.60;99.90
5118;DHT22;2578;51.622;7.046;2023-02-15T08:13:50;6.00;99.90
5118;DHT22;2578;51.622;7.046;2023-02-15T08:18:53;6.80;99.90
5118;DHT22;2578;51.622;7.046;2023-02-15T08:21:20;6.80;99.90
5118;DHT22;2578;51.622;7.046;2023-02-15T08:23:46;7.00;99.90
5118;DHT22;2578;51.622;7.046;2023-02-15T08:26:12;7.20;99.90
5118;DHT22;2578;51.622;7.046;2023-02-15T08:28:38;7.70;99.90
5118;DHT22;2578;51.622;7.046;2023-02-15T08:31:06;8.30;99.90
5118;DHT22;2578;51.622;7.046;2023-02-15T08:33:33;8.30;99.90
5118;DHT22;2578;51.622;7.046;2023-02-15T08:36:06;8.30;99.90
5118;DHT22;2578;51.622;7.046;2023-02-15T08:38:33;8.50;99.90
5118;DHT22;2578;51.622;7.046;2023-02-15T08:41:19;8.80;99.90
5118;DHT22;2578;51.622;7.046;2023-02-15T08:43:46;9.30;99.90
5118;DHT22;2578;51.622;7.046;2023-02-15T08:46:14;9.60;99.90
5118;DHT22;2578;51.622;7.046;2023-02-15T08:51:10;10.30;99.90
5118;DHT22;2578;51.622;7.046;2023-02-15T08:53:40;10.70;99.90
5118;DHT22;2578;51.622;7.046;2023-02-15T08:56:07;10.90;99.90
5118;DHT22;2578;51.622;7.046;2023-02-15T08:58:33;10.80;99.90
5118;DHT22;2578;51.622;7.046;2023-02-15T09:00:59;11.00;99.90
5118;DHT22;2578;51.622;7.046;2023-02-15T09:03:27;11.40;99.90
5118;DHT22;2578;51.622;7.046;2023-02-15T09:05:58;11.50;99.90
5118;DHT22;2578;51.622;7.046;2023-02-15T09:08:24;11.50;88.80
5118;DHT22;2578;51.622;7.046;2023-02-15T09:10:50;11.70;48.00
5118;DHT22;2578;51.622;7.046;2023-02-15T09:13:15;12.00;71.10
5118;DHT22;2578;51.622;7.046;2023-02-15T09:15:41;12.10;64.10
5118;DHT22;2578;51.622;7.046;2023-02-15T09:18:06;12.00;42.30
5118;DHT22;2578;51.622;7.046;2023-02-15T09:20:35;12.10;43.00
5118;DHT22;2578;51.622;7.046;2023-02-15T09:23:01;12.60;45.80
5118;DHT22;2578;51.622;7.046;2023-02-15T09:25:27;12.90;9.30
5118;DHT22;2578;51.622;7.046;2023-02-15T09:27:53;13.10;16.30
5118;DHT22;2578;51.622;7.046;2023-02-15T09:30:19;13.90;8.60
5118;DHT22;2578;51.622;7.046;2023-02-15T09:32:45;14.30;16.10
5118;DHT22;2578;51.622;7.046;2023-02-15T09:35:12;14.80;5.50
5118;DHT22;2578;51.622;7.046;2023-02-15T09:37:37;15.50;1.00
5118;DHT22;2578;51.622;7.046;2023-02-15T09:40:04;15.90;1.00
5118;DHT22;2578;51.622;7.046;2023-02-15T09:46:20;16.70;1.00
5118;DHT22;2578;51.622;7.046;2023-02-15T09:48:40;16.60;1.00
5118;DHT22;2578;51.622;7.046;2023-02-15T09:51:38;16.30;1.00
5118;DHT22;2578;51.622;7.046;2023-02-15T10:05:44;14.00;1.00
5118;DHT22;2578;51.622;7.046;2023-02-15T10:08:29;13.20;1.00
5118;DHT22;2578;51.622;7.046;2023-02-15T10:11:09;12.80;1.00
5118;DHT22;2578;51.622;7.046;2023-02-15T10:14:24;13.00;1.00
5118;DHT22;2578;51.622;7.046;2023-02-15T10:20:05;14.70;1.00
5118;DHT22;2578;51.622;7.046;2023-02-15T10:25:35;16.10;1.00
5118;DHT22;2578;51.622;7.046;2023-02-15T10:28:13;16.70;1.00
5118;DHT22;2578;51.622;7.046;2023-02-15T10:30:47;17.30;1.00
5118;DHT22;2578;51.622;7.046;2023-02-15T10:33:18;17.60;1.00
5118;DHT22;2578;51.622;7.046;2023-02-15T10:44:24;15.80;1.00
5118;DHT22;2578;51.622;7.046;2023-02-15T11:08:32;16.50;1.00
5118;DHT22;2578;51.622;7.046;2023-02-15T11:11:02;16.50;1.00
5118;DHT22;2578;51.622;7.046;2023-02-15T11:13:34;16.40;1.00
5118;DHT22;2578;51.622;7.046;2023-02-15T11:21:05;15.90;1.00
5118;DHT22;2578;51.622;7.046;2023-02-15T11:23:35;15.90;1.00
5118;DHT22;2578;51.622;7.046;2023-02-15T11:26:15;16.00;1.00
5118;DHT22;2578;51.622;7.046;2023-02-15T11:29:48;15.90;1.00
5118;DHT22;2578;51.622;7.046;2023-02-15T11:31:58;15.80;1.00
5118;DHT22;2578;51.622;7.046;2023-02-15T11:34:31;16.00;1.00
5118;DHT22;2578;51.622;7.046;2023-02-15T11:37:06;16.40;1.00
5118;DHT22;2578;51.622;7.046;2023-02-15T11:39:35;17.00;1.00
5118;DHT22;2578;51.622;7.046;2023-02-15T11:42:06;17.20;1.00
5118;DHT22;2578;51.622;7.046;2023-02-15T11:45:26;17.60;1.00
5118;DHT22;2578;51.622;7.046;2023-02-15T11:47:30;18.20;1.00
5118;DHT22;2578;51.622;7.046;2023-02-15T11:49:57;19.00;1.00
5118;DHT22;2578;51.622;7.046;2023-02-15T11:52:22;19.00;1.00
5118;DHT22;2578;51.622;7.046;2023-02-15T11:54:50;19.20;1.00
5118;DHT22;2578;51.622;7.046;2023-02-15T11:57:31;19.40;1.00
5118;DHT22;2578;51.622;7.046;2023-02-15T12:00:03;19.10;1.00
5118;DHT22;2578;51.622;7.046;2023-02-15T12:02:31;19.00;1.00
5118;DHT22;2578;51.622;7.046;2023-02-15T12:05:07;19.50;1.00
5118;DHT22;2578;51.622;7.046;2023-02-15T12:07:37;19.60;1.00
5118;DHT22;2578;51.622;7.046;2023-02-15T12:10:23;20.10;1.00
5118;DHT22;2578;51.622;7.046;2023-02-15T12:13:15;20.40;1.00
5118;DHT22;2578;51.622;7.046;2023-02-15T12:15:46;20.50;1.00
5118;DHT22;2578;51.622;7.046;2023-02-15T12:21:07;20.70;1.00
5118;DHT22;2578;51.622;7.046;2023-02-15T12:23:34;19.50;1.00
5118;DHT22;2578;51.622;7.046;2023-02-15T12:26:05;19.40;1.00
5118;DHT22;2578;51.622;7.046;2023-02-15T12:28:32;19.70;1.00
5118;DHT22;2578;51.622;7.046;2023-02-15T12:30:59;19.20;1.00
5118;DHT22;2578;51.622;7.046;2023-02-15T12:36:20;19.10;1.00
5118;DHT22;2578;51.622;7.046;2023-02-15T12:39:04;18.60;1.00
5118;DHT22;2578;51.622;7.046;2023-02-15T12:41:30;17.70;1.00
5118;DHT22;2578;51.622;7.046;2023-02-15T12:44:09;18.80;1.00
5118;DHT22;2578;51.622;7.046;2023-02-15T12:46:40;19.60;1.00
5118;DHT22;2578;51.622;7.046;2023-02-15T12:51:48;19.00;1.00
5118;DHT22;2578;51.622;7.046;2023-02-15T12:56:50;19.30;1.00
5118;DHT22;2578;51.622;7.046;2023-02-15T12:59:16;19.40;1.00
5118;DHT22;2578;51.622;7.046;2023-02-15T13:01:46;19.40;1.00
5118;DHT22;2578;51.622;7.046;2023-02-15T13:04:29;19.90;1.00
5118;DHT22;2578;51.622;7.046;2023-02-15T13:06:58;19.80;1.00
5118;DHT22;2578;51.622;7.046;2023-02-15T13:12:19;19.80;1.00
5118;DHT22;2578;51.622;7.046;2023-02-15T13:14:48;19.50;1.00
5118;DHT22;2578;51.622;7.046;2023-02-15T13:17:19;20.00;1.00
5118;DHT22;2578;51.622;7.046;2023-02-15T13:19:48;20.30;1.00
5118;DHT22;2578;51.622;7.046;2023-02-15T13:22:20;20.40;1.00
5118;DHT22;2578;51.622;7.046;2023-02-15T13:24:58;21.00;1.00
5118;DHT22;2578;51.622;7.046;2023-02-15T13:27:31;21.30;1.00
5118;DHT22;2578;51.622;7.046;2023-02-15T13:30:00;20.60;1.00
5118;DHT22;2578;51.622;7.046;2023-02-15T13:32:34;20.30;1.00
5118;DHT22;2578;51.622;7.046;2023-02-15T13:35:03;20.60;1.00
5118;DHT22;2578;51.622;7.046;2023-02-15T13:37:57;20.70;1.00
5118;DHT22;2578;51.622;7.046;2023-02-15T13:40:36;20.80;1.00
5118;DHT22;2578;51.622;7.046;2023-02-15T13:46:19;21.10;1.00
5118;DHT22;2578;51.622;7.046;2023-02-15T13:54:42;21.80;1.00
5118;DHT22;2578;51.622;7.046;2023-02-15T13:59:46;21.90;1.00
5118;DHT22;2578;51.622;7.046;2023-02-15T14:08:01;21.40;1.00
5118;DHT22;2578;51.622;7.046;2023-02-15T14:21:31;21.90;1.00
5118;DHT22;2578;51.622;7.046;2023-02-15T14:24:13;21.30;1.00
5118;DHT22;2578;51.622;7.046;2023-02-15T14:32:29;21.60;1.00
5118;DHT22;2578;51.622;7.046;2023-02-15T14:35:00;21.30;1.00
5118;DHT22;2578;51.622;7.046;2023-02-15T14:37:39;21.30;1.00
5118;DHT22;2578;51.622;7.046;2023-02-15T14:40:33;19.90;1.00
5118;DHT22;2578;51.622;7.046;2023-02-15T14:48:43;18.60;1.00
5118;DHT22;2578;51.622;7.046;2023-02-15T14:51:10;18.30;1.00
5118;DHT22;2578;51.622;7.046;2023-02-15T14:53:56;18.00;1.00
5118;DHT22;2578;51.622;7.046;2023-02-15T14:56:23;17.50;1.00
5118;DHT22;2578;51.622;7.046;2023-02-15T15:01:16;17.70;1.00
5118;DHT22;2578;51.622;7.046;2023-02-15T15:03:51;17.20;1.00
5118;DHT22;2578;51.622;7.046;2023-02-15T15:06:26;16.60;1.00
5118;DHT22;2578;51.622;7.046;2023-02-15T15:08:55;16.50;1.00
5118;DHT22;2578;51.622;7.046;2023-02-15T15:14:00;16.30;1.00
5118;DHT22;2578;51.622;7.046;2023-02-15T15:19:00;15.50;1.00
5118;DHT22;2578;51.622;7.046;2023-02-15T15:46:11;14.40;1.00
5118;DHT22;2578;51.622;7.046;2023-02-15T15:48:40;14.60;1.00
5118;DHT22;2578;51.622;7.046;2023-02-15T15:51:18;14.60;1.00
5118;DHT22;2578;51.622;7.046;2023-02-15T15:53:48;14.50;1.00
5118;DHT22;2578;51.622;7.046;2023-02-15T15:56:28;14.50;1.00
5118;DHT22;2578;51.622;7.046;2023-02-15T15:58:59;13.90;1.00
5118;DHT22;2578;51.622;7.046;2023-02-15T16:01:44;13.90;1.00
5118;DHT22;2578;51.622;7.046;2023-02-15T16:04:13;13.60;1.00
5118;DHT22;2578;51.622;7.046;2023-02-15T16:06:40;13.40;1.00
5118;DHT22;2578;51.622;7.046;2023-02-15T16:09:29;13.00;1.00
5118;DHT22;2578;51.622;7.046;2023-02-15T16:11:56;12.90;1.00
5118;DHT22;2578;51.622;7.046;2023-02-15T16:16:54;12.60;1.00
5118;DHT22;2578;51.622;7.046;2023-02-15T16:19:29;12.40;1.00
5118;DHT22;2578;51.622;7.046;2023-02-15T16:21:57;12.40;1.00
5118;DHT22;2578;51.622;7.046;2023-02-15T16:29:55;12.00;1.00
5118;DHT22;2578;51.622;7.046;2023-02-15T16:32:25;11.90;1.00
5118;DHT22;2578;51.622;7.046;2023-02-15T16:37:24;11.60;1.00
5118;DHT22;2578;51.622;7.046;2023-02-15T16:39:53;11.50;1.00
5118;DHT22;2578;51.622;7.046;2023-02-15T16:42:19;11.40;1.00
5118;DHT22;2578;51.622;7.046;2023-02-15T16:44:48;11.30;1.00
5118;DHT22;2578;51.622;7.046;2023-02-15T16:47:24;11.20;1.00
5118;DHT22;2578;51.622;7.046;2023-02-15T16:49:52;11.00;1.00
5118;DHT22;2578;51.622;7.046;2023-02-15T16:52:21;10.90;1.00
5118;DHT22;2578;51.622;7.046;2023-02-15T16:55:01;10.60;1.00
5118;DHT22;2578;51.622;7.046;2023-02-15T16:57:32;10.80;1.00
5118;DHT22;2578;51.622;7.046;2023-02-15T17:00:04;10.90;1.00
5118;DHT22;2578;51.622;7.046;2023-02-15T17:02:31;11.00;1.00
5118;DHT22;2578;51.622;7.046;2023-02-15T17:05:24;10.90;1.00
5118;DHT22;2578;51.622;7.046;2023-02-15T17:10:41;11.00;1.00
5118;DHT22;2578;51.622;7.046;2023-02-15T17:13:17;11.00;1.00
5118;DHT22;2578;51.622;7.046;2023-02-15T17:15:46;11.00;1.00
5118;DHT22;2578;51.622;7.046;2023-02-15T17:18:44;11.00;1.00
5118;DHT22;2578;51.622;7.046;2023-02-15T17:21:13;9.20;1.00
5118;DHT22;2578;51.622;7.046;2023-02-15T17:23:50;10.80;1.00
5118;DHT22;2578;51.622;7.046;2023-02-15T17:28:47;10.50;1.00
5118;DHT22;2578;51.622;7.046;2023-02-15T17:31:16;10.50;1.00
5118;DHT22;2578;51.622;7.046;2023-02-15T17:33:43;10.30;1.00
5118;DHT22;2578;51.622;7.046;2023-02-15T17:36:19;10.30;1.00
5118;DHT22;2578;51.622;7.046;2023-02-15T17:39:21;10.60;1.00
5118;DHT22;2578;51.622;7.046;2023-02-15T17:41:47;10.60;1.00
5118;DHT22;2578;51.622;7.046;2023-02-15T17:44:13;10.60;1.00
5118;DHT22;2578;51.622;7.046;2023-02-15T17:46:41;10.50;1.00
5118;DHT22;2578;51.622;7.046;2023-02-15T17:49:10;10.30;1.00
5118;DHT22;2578;51.622;7.046;2023-02-15T17:51:39;10.30;1.00
5118;DHT22;2578;51.622;7.046;2023-02-15T17:54:07;10.30;1.00
5118;DHT22;2578;51.622;7.046;2023-02-15T17:56:51;10.20;1.00
5118;DHT22;2578;51.622;7.046;2023-02-15T17:59:17;10.20;1.00
5118;DHT22;2578;51.622;7.046;2023-02-15T18:01:46;10.10;1.00
5118;DHT22;2578;51.622;7.046;2023-02-15T18:04:32;10.10;1.00
5118;DHT22;2578;51.622;7.046;2023-02-15T18:07:18;10.20;1.00
5118;DHT22;2578;51.622;7.046;2023-02-15T18:10:13;10.10;1.00
5118;DHT22;2578;51.622;7.046;2023-02-15T18:12:58;10.10;1.00
5118;DHT22;2578;51.622;7.046;2023-02-15T18:15:23;10.20;1.00
5118;DHT22;2578;51.622;7.046;2023-02-15T18:17:50;10.20;1.00
5118;DHT22;2578;51.622;7.046;2023-02-15T18:20:25;11.20;1.00
5118;DHT22;2578;51.622;7.046;2023-02-15T18:22:53;10.00;1.00
5118;DHT22;2578;51.622;7.046;2023-02-15T18:25:21;10.00;1.00
5118;DHT22;2578;51.622;7.046;2023-02-15T18:27:48;9.90;1.00
5118;DHT22;2578;51.622;7.046;2023-02-15T18:30:15;9.90;1.00
5118;DHT22;2578;51.622;7.046;2023-02-15T18:32:41;9.80;1.00
5118;DHT22;2578;51.622;7.046;2023-02-15T18:35:16;9.80;1.00
5118;DHT22;2578;51.622;7.046;2023-02-15T18:37:44;9.60;1.00
5118;DHT22;2578;51.622;7.046;2023-02-15T18:40:18;9.60;1.00
5118;DHT22;2578;51.622;7.046;2023-02-15T18:42:44;9.30;1.00
5118;DHT22;2578;51.622;7.046;2023-02-15T18:47:41;9.00;1.00
5118;DHT22;2578;51.622;7.046;2023-02-15T18:50:07;8.70;1.00
5118;DHT22;2578;51.622;7.046;2023-02-15T18:52:36;8.60;1.00
5118;DHT22;2578;51.622;7.046;2023-02-15T18:55:04;8.60;1.00
5118;DHT22;2578;51.622;7.046;2023-02-15T18:57:37;8.60;1.00
5118;DHT22;2578;51.622;7.046;2023-02-15T19:00:05;8.60;1.00
5118;DHT22;2578;51.622;7.046;2023-02-15T19:02:31;8.60;1.00
5118;DHT22;2578;51.622;7.046;2023-02-15T19:04:57;8.60;1.00
5118;DHT22;2578;51.622;7.046;2023-02-15T19:07:25;8.50;1.00
5118;DHT22;2578;51.622;7.046;2023-02-15T19:09:55;8.40;1.00
5118;DHT22;2578;51.622;7.046;2023-02-15T19:12:21;8.50;1.00
5118;DHT22;2578;51.622;7.046;2023-02-15T19:14:47;8.40;1.00
5118;DHT22;2578;51.622;7.046;2023-02-15T19:17:19;8.30;1.00
5118;DHT22;2578;51.622;7.046;2023-02-15T19:19:45;8.30;1.00
5118;DHT22;2578;51.622;7.046;2023-02-15T19:22:13;8.20;1.00
5118;DHT22;2578;51.622;7.046;2023-02-15T19:24:41;8.20;1.00
5118;DHT22;2578;51.622;7.046;2023-02-15T19:29:45;8.00;1.00
5118;DHT22;2578;51.622;7.046;2023-02-15T19:32:11;8.00;1.00
5118;DHT22;2578;51.622;7.046;2023-02-15T19:34:37;7.90;1.00
5118;DHT22;2578;51.622;7.046;2023-02-15T19:37:04;7.90;1.00
5118;DHT22;2578;51.622;7.046;2023-02-15T19:39:40;7.90;1.00